sensor_id;sensor_type;location;lat;lon;timestamp;P1;durP1;ratioP1;P2;durP2;ratioP2
21731;SDS011;11028;51.156;17.130;2023-04-28T00:00:43;29.77;;;13.15;;
21731;SDS011;11028;51.156;17.130;2023-04-28T00:08:04;32.20;;;13.52;;
21731;SDS011;11028;51.156;17.130;2023-04-28T00:22:51;33.53;;;14.10;;
21731;SDS011;11028;51.156;17.130;2023-04-28T00:30:11;26.20;;;11.95;;
21731;SDS011;11028;51.156;17.130;2023-04-28T00:37:34;28.95;;;13.25;;
21731;SDS011;11028;51.156;17.130;2023-04-28T00:44:57;25.75;;;13.13;;
21731;SDS011;11028;51.156;17.130;2023-04-28T00:52:28;24.10;;;12.60;;
21731;SDS011;11028;51.156;17.130;2023-04-28T00:59:50;28.20;;;13.15;;
21731;SDS011;11028;51.156;17.130;2023-04-28T01:07:10;23.73;;;12.77;;
21731;SDS011;11028;51.156;17.130;2023-04-28T01:14:31;27.88;;;11.77;;
21731;SDS011;11028;51.156;17.130;2023-04-28T01:21:53;24.58;;;12.82;;
21731;SDS011;11028;51.156;17.130;2023-04-28T01:29:15;14.85;;;7.78;;
21731;SDS011;11028;51.156;17.130;2023-04-28T01:36:35;21.85;;;10.95;;
21731;SDS011;11028;51.156;17.130;2023-04-28T01:43:56;19.13;;;10.27;;
21731;SDS011;11028;51.156;17.130;2023-04-28T01:51:17;20.65;;;9.35;;
21731;SDS011;11028;51.156;17.130;2023-04-28T01:58:44;16.60;;;9.00;;
21731;SDS011;11028;51.156;17.130;2023-04-28T02:06:32;20.10;;;10.27;;
21731;SDS011;11028;51.156;17.130;2023-04-28T02:22:50;17.33;;;8.90;;
21731;SDS011;11028;51.156;17.130;2023-04-28T02:30:32;18.73;;;9.68;;
21731;SDS011;11028;51.156;17.130;2023-04-28T02:37:57;19.63;;;9.15;;
21731;SDS011;11028;51.156;17.130;2023-04-28T02:45:16;18.60;;;9.65;;
21731;SDS011;11028;51.156;17.130;2023-04-28T02:52:36;20.60;;;9.90;;
21731;SDS011;11028;51.156;17.130;2023-04-28T02:59:56;17.27;;;9.20;;
21731;SDS011;11028;51.156;17.130;2023-04-28T03:07:21;23.67;;;9.40;;
21731;SDS011;11028;51.156;17.130;2023-04-28T03:14:40;21.65;;;10.52;;
21731;SDS011;11028;51.156;17.130;2023-04-28T03:22:00;17.02;;;9.40;;
21731;SDS011;11028;51.156;17.130;2023-04-28T03:29:21;19.38;;;10.13;;
21731;SDS011;11028;51.156;17.130;2023-04-28T03:36:41;17.00;;;9.30;;
21731;SDS011;11028;51.156;17.130;2023-04-28T03:44:11;18.80;;;10.10;;
21731;SDS011;11028;51.156;17.130;2023-04-28T03:51:40;19.63;;;10.60;;
21731;SDS011;11028;51.156;17.130;2023-04-28T03:59:01;28.90;;;10.88;;
21731;SDS011;11028;51.156;17.130;2023-04-28T04:06:22;19.58;;;11.10;;
21731;SDS011;11028;51.156;17.130;2023-04-28T04:13:46;25.38;;;10.70;;
21731;SDS011;11028;51.156;17.130;2023-04-28T04:21:07;22.20;;;11.82;;
21731;SDS011;11028;51.156;17.130;2023-04-28T04:28:30;24.67;;;11.80;;
21731;SDS011;11028;51.156;17.130;2023-04-28T04:35:50;28.00;;;12.48;;
21731;SDS011;11028;51.156;17.130;2023-04-28T04:43:12;27.20;;;12.20;;
21731;SDS011;11028;51.156;17.130;2023-04-28T04:58:38;26.20;;;12.15;;
21731;SDS011;11028;51.156;17.130;2023-04-28T05:06:25;26.00;;;12.88;;
21731;SDS011;11028;51.156;17.130;2023-04-28T05:13:49;30.05;;;12.63;;
21731;SDS011;11028;51.156;17.130;2023-04-28T05:21:12;23.25;;;13.07;;
21731;SDS011;11028;51.156;17.130;2023-04-28T05:28:33;24.35;;;12.75;;
21731;SDS011;11028;51.156;17.130;2023-04-28T05:35:52;36.65;;;13.80;;
21731;SDS011;11028;51.156;17.130;2023-04-28T05:43:12;31.73;;;13.10;;
21731;SDS011;11028;51.156;17.130;2023-04-28T05:50:33;30.55;;;13.35;;
21731;SDS011;11028;51.156;17.130;2023-04-28T05:58:01;32.47;;;13.87;;
21731;SDS011;11028;51.156;17.130;2023-04-28T06:05:26;25.83;;;13.02;;
21731;SDS011;11028;51.156;17.130;2023-04-28T06:12:47;27.80;;;13.13;;
21731;SDS011;11028;51.156;17.130;2023-04-28T06:20:09;24.60;;;12.10;;
21731;SDS011;11028;51.156;17.130;2023-04-28T06:27:29;21.20;;;11.55;;
21731;SDS011;11028;51.156;17.130;2023-04-28T06:34:51;20.52;;;11.43;;
21731;SDS011;11028;51.156;17.130;2023-04-28T06:42:12;24.07;;;12.93;;
21731;SDS011;11028;51.156;17.130;2023-04-28T06:49:41;25.30;;;11.50;;
21731;SDS011;11028;51.156;17.130;2023-04-28T06:57:03;24.52;;;11.63;;
21731;SDS011;11028;51.156;17.130;2023-04-28T07:04:22;24.65;;;11.80;;
21731;SDS011;11028;51.156;17.130;2023-04-28T07:11:41;26.88;;;11.82;;
21731;SDS011;11028;51.156;17.130;2023-04-28T07:19:01;22.67;;;11.07;;
21731;SDS011;11028;51.156;17.130;2023-04-28T07:26:19;21.95;;;11.73;;
21731;SDS011;11028;51.156;17.130;2023-04-28T07:33:38;18.90;;;10.02;;
21731;SDS011;11028;51.156;17.130;2023-04-28T07:40:59;18.00;;;9.55;;
21731;SDS011;11028;51.156;17.130;2023-04-28T07:48:17;14.85;;;8.68;;
21731;SDS011;11028;51.156;17.130;2023-04-28T07:55:36;16.73;;;7.38;;
21731;SDS011;11028;51.156;17.130;2023-04-28T08:02:59;15.10;;;7.38;;
21731;SDS011;11028;51.156;17.130;2023-04-28T08:10:17;14.40;;;7.28;;
21731;SDS011;11028;51.156;17.130;2023-04-28T08:17:37;16.40;;;7.35;;
21731;SDS011;11028;51.156;17.130;2023-04-28T08:24:57;18.23;;;7.28;;
21731;SDS011;11028;51.156;17.130;2023-04-28T08:32:15;12.75;;;7.13;;
21731;SDS011;11028;51.156;17.130;2023-04-28T08:39:33;13.50;;;6.75;;
21731;SDS011;11028;51.156;17.130;2023-04-28T08:46:53;16.40;;;7.07;;
21731;SDS011;11028;51.156;17.130;2023-04-28T08:54:13;14.50;;;6.68;;
21731;SDS011;11028;51.156;17.130;2023-04-28T09:01:42;12.48;;;4.53;;
21731;SDS011;11028;51.156;17.130;2023-04-28T09:09:22;8.07;;;4.68;;
21731;SDS011;11028;51.156;17.130;2023-04-28T09:16:42;13.75;;;5.90;;
21731;SDS011;11028;51.156;17.130;2023-04-28T09:24:01;9.43;;;5.45;;
21731;SDS011;11028;51.156;17.130;2023-04-28T09:31:24;10.07;;;4.80;;
21731;SDS011;11028;51.156;17.130;2023-04-28T09:38:44;10.32;;;5.38;;
21731;SDS011;11028;51.156;17.130;2023-04-28T09:46:03;12.48;;;5.55;;
21731;SDS011;11028;51.156;17.130;2023-04-28T09:53:24;8.15;;;4.97;;
21731;SDS011;11028;51.156;17.130;2023-04-28T10:00:42;12.70;;;6.13;;
21731;SDS011;11028;51.156;17.130;2023-04-28T10:08:01;10.13;;;5.28;;
21731;SDS011;11028;51.156;17.130;2023-04-28T10:15:20;11.32;;;5.43;;
21731;SDS011;11028;51.156;17.130;2023-04-28T10:22:44;10.38;;;5.70;;
21731;SDS011;11028;51.156;17.130;2023-04-28T10:30:11;9.23;;;5.65;;
21731;SDS011;11028;51.156;17.130;2023-04-28T10:38:03;9.07;;;5.32;;
21731;SDS011;11028;51.156;17.130;2023-04-28T10:53:28;13.73;;;5.10;;
21731;SDS011;11028;51.156;17.130;2023-04-28T11:01:24;7.25;;;4.05;;
21731;SDS011;11028;51.156;17.130;2023-04-28T11:08:45;8.48;;;4.65;;
21731;SDS011;11028;51.156;17.130;2023-04-28T11:16:03;7.82;;;4.30;;
21731;SDS011;11028;51.156;17.130;2023-04-28T11:23:22;9.25;;;4.57;;
21731;SDS011;11028;51.156;17.130;2023-04-28T11:30:42;7.75;;;4.13;;
21731;SDS011;11028;51.156;17.130;2023-04-28T11:38:01;12.25;;;3.70;;
21731;SDS011;11028;51.156;17.130;2023-04-28T11:45:20;7.45;;;3.45;;
21731;SDS011;11028;51.156;17.130;2023-04-28T11:52:48;7.75;;;3.60;;
21731;SDS011;11028;51.156;17.130;2023-04-28T12:00:12;8.85;;;4.40;;
21731;SDS011;11028;51.156;17.130;2023-04-28T12:07:39;7.72;;;4.25;;
21731;SDS011;11028;51.156;17.130;2023-04-28T12:15:01;12.38;;;4.05;;
21731;SDS011;11028;51.156;17.130;2023-04-28T12:22:20;8.15;;;3.97;;
21731;SDS011;11028;51.156;17.130;2023-04-28T12:29:39;7.60;;;3.65;;
21731;SDS011;11028;51.156;17.130;2023-04-28T12:37:00;12.77;;;4.45;;
21731;SDS011;11028;51.156;17.130;2023-04-28T12:44:21;4.90;;;3.67;;
21731;SDS011;11028;51.156;17.130;2023-04-28T12:51:39;6.75;;;3.35;;
21731;SDS011;11028;51.156;17.130;2023-04-28T12:58:59;5.70;;;3.35;;
21731;SDS011;11028;51.156;17.130;2023-04-28T13:06:19;7.15;;;3.45;;
21731;SDS011;11028;51.156;17.130;2023-04-28T13:13:37;7.60;;;3.35;;
21731;SDS011;11028;51.156;17.130;2023-04-28T13:20:58;8.95;;;3.58;;
21731;SDS011;11028;51.156;17.130;2023-04-28T13:28:16;6.13;;;2.80;;
21731;SDS011;11028;51.156;17.130;2023-04-28T13:35:34;6.53;;;3.03;;
21731;SDS011;11028;51.156;17.130;2023-04-28T13:42:54;4.07;;;3.30;;
21731;SDS011;11028;51.156;17.130;2023-04-28T13:50:13;3.70;;;2.30;;
21731;SDS011;11028;51.156;17.130;2023-04-28T13:57:32;3.15;;;2.40;;
21731;SDS011;11028;51.156;17.130;2023-04-28T14:04:52;3.63;;;2.63;;
21731;SDS011;11028;51.156;17.130;2023-04-28T14:12:10;5.47;;;2.22;;
21731;SDS011;11028;51.156;17.130;2023-04-28T14:19:29;6.63;;;2.30;;
21731;SDS011;11028;51.156;17.130;2023-04-28T14:26:49;8.85;;;2.67;;
21731;SDS011;11028;51.156;17.130;2023-04-28T14:34:08;9.55;;;2.55;;
21731;SDS011;11028;51.156;17.130;2023-04-28T14:41:26;6.05;;;2.70;;
21731;SDS011;11028;51.156;17.130;2023-04-28T14:48:46;6.80;;;2.72;;
21731;SDS011;11028;51.156;17.130;2023-04-28T14:56:05;10.30;;;2.65;;
21731;SDS011;11028;51.156;17.130;2023-04-28T15:03:34;6.43;;;2.40;;
21731;SDS011;11028;51.156;17.130;2023-04-28T15:10:55;5.90;;;2.20;;
21731;SDS011;11028;51.156;17.130;2023-04-28T15:18:30;4.93;;;2.53;;
21731;SDS011;11028;51.156;17.130;2023-04-28T15:25:49;6.05;;;2.38;;
21731;SDS011;11028;51.156;17.130;2023-04-28T15:33:09;3.35;;;2.28;;
21731;SDS011;11028;51.156;17.130;2023-04-28T15:40:34;3.88;;;2.33;;
21731;SDS011;11028;51.156;17.130;2023-04-28T15:47:54;7.85;;;2.53;;
21731;SDS011;11028;51.156;17.130;2023-04-28T15:55:15;4.45;;;2.80;;
21731;SDS011;11028;51.156;17.130;2023-04-28T16:02:36;4.45;;;2.33;;
21731;SDS011;11028;51.156;17.130;2023-04-28T16:09:55;5.18;;;2.63;;
21731;SDS011;11028;51.156;17.130;2023-04-28T16:17:14;4.40;;;2.92;;
21731;SDS011;11028;51.156;17.130;2023-04-28T16:24:35;4.93;;;2.47;;
21731;SDS011;11028;51.156;17.130;2023-04-28T16:31:58;6.03;;;2.42;;
21731;SDS011;11028;51.156;17.130;2023-04-28T16:39:25;8.23;;;2.40;;
21731;SDS011;11028;51.156;17.130;2023-04-28T16:46:45;6.03;;;2.55;;
21731;SDS011;11028;51.156;17.130;2023-04-28T16:54:04;3.30;;;2.47;;
21731;SDS011;11028;51.156;17.130;2023-04-28T17:01:23;11.77;;;2.95;;
21731;SDS011;11028;51.156;17.130;2023-04-28T17:08:43;3.88;;;2.63;;
21731;SDS011;11028;51.156;17.130;2023-04-28T17:16:01;9.15;;;3.92;;
21731;SDS011;11028;51.156;17.130;2023-04-28T17:23:20;7.78;;;2.83;;
21731;SDS011;11028;51.156;17.130;2023-04-28T17:30:40;5.35;;;3.08;;
21731;SDS011;11028;51.156;17.130;2023-04-28T17:38:03;5.05;;;2.65;;
21731;SDS011;11028;51.156;17.130;2023-04-28T17:45:22;5.90;;;3.03;;
21731;SDS011;11028;51.156;17.130;2023-04-28T17:52:44;7.57;;;3.10;;
21731;SDS011;11028;51.156;17.130;2023-04-28T18:00:05;8.07;;;3.10;;
21731;SDS011;11028;51.156;17.130;2023-04-28T18:07:29;7.68;;;3.78;;
21731;SDS011;11028;51.156;17.130;2023-04-28T18:14:49;9.48;;;3.90;;
21731;SDS011;11028;51.156;17.130;2023-04-28T18:22:23;9.38;;;4.07;;
21731;SDS011;11028;51.156;17.130;2023-04-28T18:29:59;7.18;;;3.95;;
21731;SDS011;11028;51.156;17.130;2023-04-28T18:37:17;11.25;;;4.28;;
21731;SDS011;11028;51.156;17.130;2023-04-28T18:44:36;15.57;;;4.25;;
21731;SDS011;11028;51.156;17.130;2023-04-28T18:52:00;12.73;;;4.25;;
21731;SDS011;11028;51.156;17.130;2023-04-28T18:59:19;11.10;;;4.90;;
21731;SDS011;11028;51.156;17.130;2023-04-28T19:06:41;14.23;;;5.13;;
21731;SDS011;11028;51.156;17.130;2023-04-28T19:14:08;14.95;;;4.78;;
21731;SDS011;11028;51.156;17.130;2023-04-28T19:21:39;9.38;;;4.80;;
21731;SDS011;11028;51.156;17.130;2023-04-28T19:29:27;10.88;;;5.53;;
21731;SDS011;11028;51.156;17.130;2023-04-28T19:45:59;10.55;;;5.97;;
21731;SDS011;11028;51.156;17.130;2023-04-28T19:53:43;13.38;;;6.63;;
21731;SDS011;11028;51.156;17.130;2023-04-28T20:01:13;13.18;;;6.03;;
21731;SDS011;11028;51.156;17.130;2023-04-28T20:08:36;9.68;;;6.40;;
21731;SDS011;11028;51.156;17.130;2023-04-28T20:16:01;14.15;;;5.93;;
21731;SDS011;11028;51.156;17.130;2023-04-28T20:23:22;12.48;;;5.80;;
21731;SDS011;11028;51.156;17.130;2023-04-28T20:30:50;14.23;;;5.78;;
21731;SDS011;11028;51.156;17.130;2023-04-28T20:38:23;15.77;;;6.20;;
21731;SDS011;11028;51.156;17.130;2023-04-28T20:45:42;14.13;;;6.40;;
21731;SDS011;11028;51.156;17.130;2023-04-28T20:53:04;9.32;;;6.30;;
21731;SDS011;11028;51.156;17.130;2023-04-28T21:00:26;12.02;;;6.55;;
21731;SDS011;11028;51.156;17.130;2023-04-28T21:07:52;13.85;;;7.03;;
21731;SDS011;11028;51.156;17.130;2023-04-28T21:15:14;13.50;;;7.10;;
21731;SDS011;11028;51.156;17.130;2023-04-28T21:22:34;15.45;;;8.00;;
21731;SDS011;11028;51.156;17.130;2023-04-28T21:29:59;16.65;;;7.88;;
21731;SDS011;11028;51.156;17.130;2023-04-28T21:37:18;14.65;;;7.63;;
21731;SDS011;11028;51.156;17.130;2023-04-28T21:44:53;16.88;;;8.48;;
21731;SDS011;11028;51.156;17.130;2023-04-28T21:52:13;15.93;;;7.32;;
21731;SDS011;11028;51.156;17.130;2023-04-28T21:59:34;13.13;;;7.70;;
21731;SDS011;11028;51.156;17.130;2023-04-28T22:06:57;15.93;;;8.07;;
21731;SDS011;11028;51.156;17.130;2023-04-28T22:14:19;15.02;;;7.57;;
21731;SDS011;11028;51.156;17.130;2023-04-28T22:22:02;13.88;;;8.68;;
21731;SDS011;11028;51.156;17.130;2023-04-28T22:29:48;16.13;;;8.25;;
21731;SDS011;11028;51.156;17.130;2023-04-28T22:37:41;16.70;;;8.55;;
21731;SDS011;11028;51.156;17.130;2023-04-28T22:45:57;15.13;;;7.28;;
21731;SDS011;11028;51.156;17.130;2023-04-28T22:53:23;14.18;;;7.60;;
21731;SDS011;11028;51.156;17.130;2023-04-28T23:00:42;15.70;;;7.95;;
21731;SDS011;11028;51.156;17.130;2023-04-28T23:08:04;19.83;;;9.13;;
21731;SDS011;11028;51.156;17.130;2023-04-28T23:15:32;17.33;;;8.80;;
21731;SDS011;11028;51.156;17.130;2023-04-28T23:22:53;11.93;;;8.00;;
21731;SDS011;11028;51.156;17.130;2023-04-28T23:30:39;16.88;;;9.50;;
21731;SDS011;11028;51.156;17.130;2023-04-28T23:38:04;15.57;;;7.80;;
21731;SDS011;11028;51.156;17.130;2023-04-28T23:45:24;16.13;;;8.90;;
21731;SDS011;11028;51.156;17.130;2023-04-28T23:52:46;14.20;;;8.25;;
